sensor_id;sensor_type;location;lat;lon;timestamp;temperature;humidity
8178;DHT22;4130;48.740;9.132;2023-10-31T00:02:19;10.80;99.90
8178;DHT22;4130;48.740;9.132;2023-10-31T00:04:47;10.80;99.90
8178;DHT22;4130;48.740;9.132;2023-10-31T00:07:13;10.80;99.90
8178;DHT22;4130;48.740;9.132;2023-10-31T00:09:46;10.80;99.90
8178;DHT22;4130;48.740;9.132;2023-10-31T00:12:13;10.60;99.90
8178;DHT22;4130;48.740;9.132;2023-10-31T00:14:40;10.70;99.90
8178;DHT22;4130;48.740;9.132;2023-10-31T00:17:07;10.80;99.90
8178;DHT22;4130;48.740;9.132;2023-10-31T00:19:34;10.70;99.90
8178;DHT22;4130;48.740;9.132;2023-10-31T00:22:01;10.70;99.90
8178;DHT22;4130;48.740;9.132;2023-10-31T00:24:28;11.20;99.90
8178;DHT22;4130;48.740;9.132;2023-10-31T00:26:58;10.80;99.90
8178;DHT22;4130;48.740;9.132;2023-10-31T00:29:27;10.70;99.90
8178;DHT22;4130;48.740;9.132;2023-10-31T00:31:54;10.70;99.90
8178;DHT22;4130;48.740;9.132;2023-10-31T00:34:21;10.80;99.90
8178;DHT22;4130;48.740;9.132;2023-10-31T00:36:49;10.70;99.90
8178;DHT22;4130;48.740;9.132;2023-10-31T00:39:16;10.70;99.90
8178;DHT22;4130;48.740;9.132;2023-10-31T00:41:43;10.60;99.90
8178;DHT22;4130;48.740;9.132;2023-10-31T00:44:12;10.60;99.90
8178;DHT22;4130;48.740;9.132;2023-10-31T00:46:39;10.60;99.90
8178;DHT22;4130;48.740;9.132;2023-10-31T00:49:06;10.70;99.90
8178;DHT22;4130;48.740;9.132;2023-10-31T00:51:33;10.60;99.90
8178;DHT22;4130;48.740;9.132;2023-10-31T00:54:01;10.60;99.90
8178;DHT22;4130;48.740;9.132;2023-10-31T00:56:28;10.60;99.90
8178;DHT22;4130;48.740;9.132;2023-10-31T00:58:56;10.60;99.90
8178;DHT22;4130;48.740;9.132;2023-10-31T01:01:24;10.50;99.90
8178;DHT22;4130;48.740;9.132;2023-10-31T01:03:51;10.60;99.90
8178;DHT22;4130;48.740;9.132;2023-10-31T01:06:19;10.40;99.90
8178;DHT22;4130;48.740;9.132;2023-10-31T01:08:54;10.30;99.90
8178;DHT22;4130;48.740;9.132;2023-10-31T01:11:21;10.20;99.90
8178;DHT22;4130;48.740;9.132;2023-10-31T01:13:48;10.30;99.90
8178;DHT22;4130;48.740;9.132;2023-10-31T01:16:15;10.10;99.90
8178;DHT22;4130;48.740;9.132;2023-10-31T01:18:44;9.90;99.90
8178;DHT22;4130;48.740;9.132;2023-10-31T01:21:11;9.90;99.90
8178;DHT22;4130;48.740;9.132;2023-10-31T01:23:39;9.90;99.90
8178;DHT22;4130;48.740;9.132;2023-10-31T01:26:06;9.70;99.90
8178;DHT22;4130;48.740;9.132;2023-10-31T01:28:36;10.40;99.90
8178;DHT22;4130;48.740;9.132;2023-10-31T01:31:03;9.70;99.90
8178;DHT22;4130;48.740;9.132;2023-10-31T01:33:31;9.60;99.90
8178;DHT22;4130;48.740;9.132;2023-10-31T01:35:59;9.50;99.90
8178;DHT22;4130;48.740;9.132;2023-10-31T01:38:26;9.40;99.90
8178;DHT22;4130;48.740;9.132;2023-10-31T01:40:53;9.40;99.90
8178;DHT22;4130;48.740;9.132;2023-10-31T01:43:32;9.40;99.90
8178;DHT22;4130;48.740;9.132;2023-10-31T01:45:59;9.40;99.90
8178;DHT22;4130;48.740;9.132;2023-10-31T01:48:28;9.40;99.90
8178;DHT22;4130;48.740;9.132;2023-10-31T01:54:05;9.50;99.90
8178;DHT22;4130;48.740;9.132;2023-10-31T01:56:32;9.50;99.90
8178;DHT22;4130;48.740;9.132;2023-10-31T01:58:59;9.60;99.90
8178;DHT22;4130;48.740;9.132;2023-10-31T02:01:26;9.60;99.90
8178;DHT22;4130;48.740;9.132;2023-10-31T02:03:53;9.60;99.90
8178;DHT22;4130;48.740;9.132;2023-10-31T02:06:20;9.70;99.90
8178;DHT22;4130;48.740;9.132;2023-10-31T02:08:48;9.60;99.90
8178;DHT22;4130;48.740;9.132;2023-10-31T02:11:16;9.60;99.90
8178;DHT22;4130;48.740;9.132;2023-10-31T02:13:43;9.70;99.90
8178;DHT22;4130;48.740;9.132;2023-10-31T02:16:10;9.50;99.90
8178;DHT22;4130;48.740;9.132;2023-10-31T02:18:36;9.50;99.90
8178;DHT22;4130;48.740;9.132;2023-10-31T02:21:04;9.50;99.90
8178;DHT22;4130;48.740;9.132;2023-10-31T02:23:32;9.50;99.90
8178;DHT22;4130;48.740;9.132;2023-10-31T02:25:58;9.50;99.90
8178;DHT22;4130;48.740;9.132;2023-10-31T02:28:25;9.50;99.90
8178;DHT22;4130;48.740;9.132;2023-10-31T02:30:53;9.60;99.90
8178;DHT22;4130;48.740;9.132;2023-10-31T02:33:23;9.40;99.90
8178;DHT22;4130;48.740;9.132;2023-10-31T02:35:52;9.50;99.90
8178;DHT22;4130;48.740;9.132;2023-10-31T02:38:22;9.90;99.90
8178;DHT22;4130;48.740;9.132;2023-10-31T02:40:51;9.40;99.90
8178;DHT22;4130;48.740;9.132;2023-10-31T02:43:20;9.60;99.90
8178;DHT22;4130;48.740;9.132;2023-10-31T02:45:47;9.60;99.90
8178;DHT22;4130;48.740;9.132;2023-10-31T02:48:16;9.40;99.90
8178;DHT22;4130;48.740;9.132;2023-10-31T02:50:46;9.50;99.90
8178;DHT22;4130;48.740;9.132;2023-10-31T02:53:15;9.50;99.90
8178;DHT22;4130;48.740;9.132;2023-10-31T02:55:43;9.50;99.90
8178;DHT22;4130;48.740;9.132;2023-10-31T02:58:11;9.50;99.90
8178;DHT22;4130;48.740;9.132;2023-10-31T03:00:38;9.40;99.90
8178;DHT22;4130;48.740;9.132;2023-10-31T03:03:10;9.50;99.90
8178;DHT22;4130;48.740;9.132;2023-10-31T03:05:37;9.50;99.90
8178;DHT22;4130;48.740;9.132;2023-10-31T03:08:05;9.50;99.90
8178;DHT22;4130;48.740;9.132;2023-10-31T03:10:33;10.00;99.90
8178;DHT22;4130;48.740;9.132;2023-10-31T03:13:00;9.70;99.90
8178;DHT22;4130;48.740;9.132;2023-10-31T03:15:29;9.60;99.90
8178;DHT22;4130;48.740;9.132;2023-10-31T03:17:56;9.90;99.90
8178;DHT22;4130;48.740;9.132;2023-10-31T03:20:23;9.70;99.90
8178;DHT22;4130;48.740;9.132;2023-10-31T03:22:50;9.60;99.90
8178;DHT22;4130;48.740;9.132;2023-10-31T03:25:17;10.80;99.90
8178;DHT22;4130;48.740;9.132;2023-10-31T03:27:44;9.40;99.90
8178;DHT22;4130;48.740;9.132;2023-10-31T03:30:11;9.40;99.90
8178;DHT22;4130;48.740;9.132;2023-10-31T03:32:40;9.40;99.90
8178;DHT22;4130;48.740;9.132;2023-10-31T03:35:07;9.70;99.90
8178;DHT22;4130;48.740;9.132;2023-10-31T03:37:34;9.30;99.90
8178;DHT22;4130;48.740;9.132;2023-10-31T03:40:01;9.90;99.90
8178;DHT22;4130;48.740;9.132;2023-10-31T03:42:28;9.20;99.90
8178;DHT22;4130;48.740;9.132;2023-10-31T03:44:55;9.30;99.90
8178;DHT22;4130;48.740;9.132;2023-10-31T03:47:22;9.30;99.90
8178;DHT22;4130;48.740;9.132;2023-10-31T03:49:53;9.30;99.90
8178;DHT22;4130;48.740;9.132;2023-10-31T03:52:19;9.30;99.90
8178;DHT22;4130;48.740;9.132;2023-10-31T03:54:46;9.20;99.90
8178;DHT22;4130;48.740;9.132;2023-10-31T03:57:13;9.40;99.90
8178;DHT22;4130;48.740;9.132;2023-10-31T03:59:42;9.20;99.90
8178;DHT22;4130;48.740;9.132;2023-10-31T04:02:09;9.20;99.90
8178;DHT22;4130;48.740;9.132;2023-10-31T04:04:36;9.20;99.90
8178;DHT22;4130;48.740;9.132;2023-10-31T04:07:04;9.10;99.90
8178;DHT22;4130;48.740;9.132;2023-10-31T04:09:31;9.10;99.90
8178;DHT22;4130;48.740;9.132;2023-10-31T04:11:57;9.50;99.90
8178;DHT22;4130;48.740;9.132;2023-10-31T04:14:24;9.10;99.90
8178;DHT22;4130;48.740;9.132;2023-10-31T04:16:51;9.10;99.90
8178;DHT22;4130;48.740;9.132;2023-10-31T04:19:17;9.30;99.90
8178;DHT22;4130;48.740;9.132;2023-10-31T04:21:44;9.20;99.90
8178;DHT22;4130;48.740;9.132;2023-10-31T04:27:28;9.10;99.90
8178;DHT22;4130;48.740;9.132;2023-10-31T04:29:54;9.10;99.90
8178;DHT22;4130;48.740;9.132;2023-10-31T04:32:21;9.10;99.90
8178;DHT22;4130;48.740;9.132;2023-10-31T04:34:48;9.10;99.90
8178;DHT22;4130;48.740;9.132;2023-10-31T04:37:15;9.10;99.90
8178;DHT22;4130;48.740;9.132;2023-10-31T04:39:41;9.10;99.90
8178;DHT22;4130;48.740;9.132;2023-10-31T04:42:09;9.40;99.90
8178;DHT22;4130;48.740;9.132;2023-10-31T04:44:37;9.10;99.90
8178;DHT22;4130;48.740;9.132;2023-10-31T04:47:04;9.10;99.90
8178;DHT22;4130;48.740;9.132;2023-10-31T04:49:31;9.10;99.90
8178;DHT22;4130;48.740;9.132;2023-10-31T04:51:57;9.00;99.90
8178;DHT22;4130;48.740;9.132;2023-10-31T04:54:24;9.00;99.90
8178;DHT22;4130;48.740;9.132;2023-10-31T04:56:51;9.00;99.90
8178;DHT22;4130;48.740;9.132;2023-10-31T04:59:17;9.00;99.90
8178;DHT22;4130;48.740;9.132;2023-10-31T05:01:50;9.00;99.90
8178;DHT22;4130;48.740;9.132;2023-10-31T05:04:17;8.90;99.90
8178;DHT22;4130;48.740;9.132;2023-10-31T05:06:44;9.00;99.90
8178;DHT22;4130;48.740;9.132;2023-10-31T05:09:13;9.00;99.90
8178;DHT22;4130;48.740;9.132;2023-10-31T05:11:40;9.00;99.90
8178;DHT22;4130;48.740;9.132;2023-10-31T05:14:08;9.00;99.90
8178;DHT22;4130;48.740;9.132;2023-10-31T05:16:39;9.00;99.90
8178;DHT22;4130;48.740;9.132;2023-10-31T05:19:08;9.00;99.90
8178;DHT22;4130;48.740;9.132;2023-10-31T05:21:35;9.00;99.90
8178;DHT22;4130;48.740;9.132;2023-10-31T05:24:02;9.00;99.90
8178;DHT22;4130;48.740;9.132;2023-10-31T05:26:29;9.00;99.90
8178;DHT22;4130;48.740;9.132;2023-10-31T05:28:56;9.00;99.90
8178;DHT22;4130;48.740;9.132;2023-10-31T05:31:22;9.00;99.90
8178;DHT22;4130;48.740;9.132;2023-10-31T05:33:50;8.90;99.90
8178;DHT22;4130;48.740;9.132;2023-10-31T05:36:19;8.90;99.90
8178;DHT22;4130;48.740;9.132;2023-10-31T05:38:46;8.90;99.90
8178;DHT22;4130;48.740;9.132;2023-10-31T05:41:13;8.80;99.90
8178;DHT22;4130;48.740;9.132;2023-10-31T05:43:40;8.90;99.90
8178;DHT22;4130;48.740;9.132;2023-10-31T05:46:07;8.80;99.90
8178;DHT22;4130;48.740;9.132;2023-10-31T05:48:36;8.80;99.90
8178;DHT22;4130;48.740;9.132;2023-10-31T05:51:03;8.80;99.90
8178;DHT22;4130;48.740;9.132;2023-10-31T05:53:31;8.80;99.90
8178;DHT22;4130;48.740;9.132;2023-10-31T05:55:59;8.70;99.90
8178;DHT22;4130;48.740;9.132;2023-10-31T05:58:26;8.80;99.90
8178;DHT22;4130;48.740;9.132;2023-10-31T06:00:53;8.80;99.90
8178;DHT22;4130;48.740;9.132;2023-10-31T06:03:20;8.80;99.90
8178;DHT22;4130;48.740;9.132;2023-10-31T06:05:46;8.80;99.90
8178;DHT22;4130;48.740;9.132;2023-10-31T06:08:13;8.70;99.90
8178;DHT22;4130;48.740;9.132;2023-10-31T06:10:42;8.90;99.90
8178;DHT22;4130;48.740;9.132;2023-10-31T06:13:08;8.80;99.90
8178;DHT22;4130;48.740;9.132;2023-10-31T06:15:35;8.70;99.90
8178;DHT22;4130;48.740;9.132;2023-10-31T06:18:02;8.80;99.90
8178;DHT22;4130;48.740;9.132;2023-10-31T06:20:29;8.80;99.90
8178;DHT22;4130;48.740;9.132;2023-10-31T06:22:56;8.90;99.90
8178;DHT22;4130;48.740;9.132;2023-10-31T06:25:24;8.90;99.90
8178;DHT22;4130;48.740;9.132;2023-10-31T06:27:53;8.90;99.90
8178;DHT22;4130;48.740;9.132;2023-10-31T06:30:19;8.90;99.90
8178;DHT22;4130;48.740;9.132;2023-10-31T06:32:47;8.80;99.90
8178;DHT22;4130;48.740;9.132;2023-10-31T06:35:14;8.80;99.90
8178;DHT22;4130;48.740;9.132;2023-10-31T06:37:40;8.80;99.90
8178;DHT22;4130;48.740;9.132;2023-10-31T06:40:08;8.80;99.90
8178;DHT22;4130;48.740;9.132;2023-10-31T06:42:35;8.80;99.90
8178;DHT22;4130;48.740;9.132;2023-10-31T06:45:04;8.80;99.90
8178;DHT22;4130;48.740;9.132;2023-10-31T06:47:31;8.80;99.90
8178;DHT22;4130;48.740;9.132;2023-10-31T06:49:58;9.30;99.90
8178;DHT22;4130;48.740;9.132;2023-10-31T06:52:25;8.90;99.90
8178;DHT22;4130;48.740;9.132;2023-10-31T06:54:52;8.80;99.90
8178;DHT22;4130;48.740;9.132;2023-10-31T06:57:18;8.90;99.90
8178;DHT22;4130;48.740;9.132;2023-10-31T06:59:45;8.90;99.90
8178;DHT22;4130;48.740;9.132;2023-10-31T07:02:14;9.00;99.90
8178;DHT22;4130;48.740;9.132;2023-10-31T07:04:41;9.20;99.90
8178;DHT22;4130;48.740;9.132;2023-10-31T07:07:07;9.00;99.90
8178;DHT22;4130;48.740;9.132;2023-10-31T07:09:34;9.30;99.90
8178;DHT22;4130;48.740;9.132;2023-10-31T07:12:01;9.00;99.90
8178;DHT22;4130;48.740;9.132;2023-10-31T07:14:28;9.00;99.90
8178;DHT22;4130;48.740;9.132;2023-10-31T07:16:56;9.10;99.90
8178;DHT22;4130;48.740;9.132;2023-10-31T07:19:24;9.10;99.90
8178;DHT22;4130;48.740;9.132;2023-10-31T07:21:51;9.10;99.90
8178;DHT22;4130;48.740;9.132;2023-10-31T07:24:18;9.10;99.90
8178;DHT22;4130;48.740;9.132;2023-10-31T07:26:44;9.30;99.90
8178;DHT22;4130;48.740;9.132;2023-10-31T07:29:11;9.30;99.90
8178;DHT22;4130;48.740;9.132;2023-10-31T07:31:38;9.30;99.90
8178;DHT22;4130;48.740;9.132;2023-10-31T07:34:05;9.40;99.90
8178;DHT22;4130;48.740;9.132;2023-10-31T07:36:33;9.30;99.90
8178;DHT22;4130;48.740;9.132;2023-10-31T07:39:01;9.50;99.90
8178;DHT22;4130;48.740;9.132;2023-10-31T07:41:29;9.50;99.90
8178;DHT22;4130;48.740;9.132;2023-10-31T07:43:56;9.60;99.90
8178;DHT22;4130;48.740;9.132;2023-10-31T07:46:23;9.70;99.90
8178;DHT22;4130;48.740;9.132;2023-10-31T07:48:50;9.60;99.90
8178;DHT22;4130;48.740;9.132;2023-10-31T07:51:17;9.70;99.90
8178;DHT22;4130;48.740;9.132;2023-10-31T07:53:45;9.70;99.90
8178;DHT22;4130;48.740;9.132;2023-10-31T07:56:15;9.80;99.90
8178;DHT22;4130;48.740;9.132;2023-10-31T07:58:43;9.80;99.90
8178;DHT22;4130;48.740;9.132;2023-10-31T08:01:09;9.80;99.90
8178;DHT22;4130;48.740;9.132;2023-10-31T08:03:37;9.90;99.90
8178;DHT22;4130;48.740;9.132;2023-10-31T08:06:05;10.00;99.90
8178;DHT22;4130;48.740;9.132;2023-10-31T08:08:33;10.00;99.90
8178;DHT22;4130;48.740;9.132;2023-10-31T08:11:01;10.10;99.90
8178;DHT22;4130;48.740;9.132;2023-10-31T08:13:29;10.10;99.90
8178;DHT22;4130;48.740;9.132;2023-10-31T08:15:56;10.30;99.90
8178;DHT22;4130;48.740;9.132;2023-10-31T08:18:24;10.20;99.90
8178;DHT22;4130;48.740;9.132;2023-10-31T08:20:50;10.30;99.90
8178;DHT22;4130;48.740;9.132;2023-10-31T08:23:17;10.40;99.90
8178;DHT22;4130;48.740;9.132;2023-10-31T08:25:44;10.40;99.90
8178;DHT22;4130;48.740;9.132;2023-10-31T08:28:12;10.50;99.90
8178;DHT22;4130;48.740;9.132;2023-10-31T08:30:39;10.50;99.90
8178;DHT22;4130;48.740;9.132;2023-10-31T08:33:05;10.50;99.90
8178;DHT22;4130;48.740;9.132;2023-10-31T08:35:32;10.60;99.90
8178;DHT22;4130;48.740;9.132;2023-10-31T08:37:59;10.60;99.90
8178;DHT22;4130;48.740;9.132;2023-10-31T08:40:26;10.60;99.90
8178;DHT22;4130;48.740;9.132;2023-10-31T08:42:52;10.60;99.90
8178;DHT22;4130;48.740;9.132;2023-10-31T08:45:21;10.70;99.90
8178;DHT22;4130;48.740;9.132;2023-10-31T08:47:48;10.70;99.90
8178;DHT22;4130;48.740;9.132;2023-10-31T08:50:16;10.70;99.90
8178;DHT22;4130;48.740;9.132;2023-10-31T08:52:43;10.80;99.90
8178;DHT22;4130;48.740;9.132;2023-10-31T08:55:10;10.90;99.90
8178;DHT22;4130;48.740;9.132;2023-10-31T08:57:36;10.80;99.90
8178;DHT22;4130;48.740;9.132;2023-10-31T09:00:04;10.90;99.90
8178;DHT22;4130;48.740;9.132;2023-10-31T09:02:33;10.90;99.90
8178;DHT22;4130;48.740;9.132;2023-10-31T09:05:00;11.00;99.90
8178;DHT22;4130;48.740;9.132;2023-10-31T09:07:26;11.10;99.90
8178;DHT22;4130;48.740;9.132;2023-10-31T09:09:53;11.10;99.90
8178;DHT22;4130;48.740;9.132;2023-10-31T09:12:20;11.30;99.90
8178;DHT22;4130;48.740;9.132;2023-10-31T09:14:48;11.30;99.90
8178;DHT22;4130;48.740;9.132;2023-10-31T09:17:15;11.30;99.90
8178;DHT22;4130;48.740;9.132;2023-10-31T09:19:44;11.30;99.90
8178;DHT22;4130;48.740;9.132;2023-10-31T09:22:10;11.50;99.90
8178;DHT22;4130;48.740;9.132;2023-10-31T09:24:39;11.60;99.90
8178;DHT22;4130;48.740;9.132;2023-10-31T09:27:06;11.50;99.90
8178;DHT22;4130;48.740;9.132;2023-10-31T09:29:33;11.60;99.90
8178;DHT22;4130;48.740;9.132;2023-10-31T09:32:00;11.60;99.90
8178;DHT22;4130;48.740;9.132;2023-10-31T09:34:26;11.50;99.90
8178;DHT22;4130;48.740;9.132;2023-10-31T09:36:54;11.70;99.90
8178;DHT22;4130;48.740;9.132;2023-10-31T09:39:22;11.40;99.90
8178;DHT22;4130;48.740;9.132;2023-10-31T09:41:49;11.30;99.90
8178;DHT22;4130;48.740;9.132;2023-10-31T09:44:16;11.30;99.90
8178;DHT22;4130;48.740;9.132;2023-10-31T09:46:43;11.30;99.90
8178;DHT22;4130;48.740;9.132;2023-10-31T09:49:11;11.30;99.90
8178;DHT22;4130;48.740;9.132;2023-10-31T09:51:39;11.40;99.90
8178;DHT22;4130;48.740;9.132;2023-10-31T09:54:08;11.40;99.90
8178;DHT22;4130;48.740;9.132;2023-10-31T09:56:36;11.30;99.90
8178;DHT22;4130;48.740;9.132;2023-10-31T09:59:04;11.30;99.90
8178;DHT22;4130;48.740;9.132;2023-10-31T10:01:31;11.40;99.90
8178;DHT22;4130;48.740;9.132;2023-10-31T10:03:58;11.60;99.90
8178;DHT22;4130;48.740;9.132;2023-10-31T10:06:25;11.60;99.90
8178;DHT22;4130;48.740;9.132;2023-10-31T10:08:54;11.70;99.90
8178;DHT22;4130;48.740;9.132;2023-10-31T10:11:23;11.60;99.90
8178;DHT22;4130;48.740;9.132;2023-10-31T10:13:51;11.60;99.90
8178;DHT22;4130;48.740;9.132;2023-10-31T10:16:28;11.60;99.90
8178;DHT22;4130;48.740;9.132;2023-10-31T10:18:55;11.50;99.90
8178;DHT22;4130;48.740;9.132;2023-10-31T10:21:22;11.50;99.90
8178;DHT22;4130;48.740;9.132;2023-10-31T10:23:51;11.50;99.90
8178;DHT22;4130;48.740;9.132;2023-10-31T10:26:18;11.70;99.90
8178;DHT22;4130;48.740;9.132;2023-10-31T10:28:51;11.70;99.90
8178;DHT22;4130;48.740;9.132;2023-10-31T10:31:18;11.70;99.90
8178;DHT22;4130;48.740;9.132;2023-10-31T10:33:45;11.80;99.90
8178;DHT22;4130;48.740;9.132;2023-10-31T10:36:12;11.90;99.90
8178;DHT22;4130;48.740;9.132;2023-10-31T10:38:43;12.10;99.90
8178;DHT22;4130;48.740;9.132;2023-10-31T10:41:12;11.90;99.90
8178;DHT22;4130;48.740;9.132;2023-10-31T10:43:40;11.90;99.90
8178;DHT22;4130;48.740;9.132;2023-10-31T10:46:12;11.90;99.90
8178;DHT22;4130;48.740;9.132;2023-10-31T10:48:44;11.90;99.90
8178;DHT22;4130;48.740;9.132;2023-10-31T10:51:18;11.90;99.90
8178;DHT22;4130;48.740;9.132;2023-10-31T10:53:49;11.80;99.90
8178;DHT22;4130;48.740;9.132;2023-10-31T10:56:28;11.70;99.90
8178;DHT22;4130;48.740;9.132;2023-10-31T10:59:01;11.60;99.90
8178;DHT22;4130;48.740;9.132;2023-10-31T11:01:31;11.50;99.90
8178;DHT22;4130;48.740;9.132;2023-10-31T11:03:59;11.40;99.90
8178;DHT22;4130;48.740;9.132;2023-10-31T11:06:26;11.30;99.90
8178;DHT22;4130;48.740;9.132;2023-10-31T11:08:53;11.30;99.90
8178;DHT22;4130;48.740;9.132;2023-10-31T11:11:22;11.40;99.90
8178;DHT22;4130;48.740;9.132;2023-10-31T11:13:50;11.50;99.90
8178;DHT22;4130;48.740;9.132;2023-10-31T11:16:23;11.60;99.90
8178;DHT22;4130;48.740;9.132;2023-10-31T11:18:53;11.70;99.90
8178;DHT22;4130;48.740;9.132;2023-10-31T11:21:22;11.80;99.90
8178;DHT22;4130;48.740;9.132;2023-10-31T11:23:57;11.90;99.90
8178;DHT22;4130;48.740;9.132;2023-10-31T11:26:25;12.00;99.90
8178;DHT22;4130;48.740;9.132;2023-10-31T11:28:52;12.00;99.90
8178;DHT22;4130;48.740;9.132;2023-10-31T11:31:20;12.30;99.90
8178;DHT22;4130;48.740;9.132;2023-10-31T11:33:47;12.20;99.90
8178;DHT22;4130;48.740;9.132;2023-10-31T11:36:17;12.40;99.90
8178;DHT22;4130;48.740;9.132;2023-10-31T11:38:46;12.50;99.90
8178;DHT22;4130;48.740;9.132;2023-10-31T11:41:12;12.70;99.90
8178;DHT22;4130;48.740;9.132;2023-10-31T11:43:52;12.80;99.90
8178;DHT22;4130;48.740;9.132;2023-10-31T11:46:19;12.90;99.90
8178;DHT22;4130;48.740;9.132;2023-10-31T11:48:48;12.80;99.90
8178;DHT22;4130;48.740;9.132;2023-10-31T11:51:17;12.90;99.90
8178;DHT22;4130;48.740;9.132;2023-10-31T11:53:44;12.90;99.90
8178;DHT22;4130;48.740;9.132;2023-10-31T11:56:11;12.80;99.90
8178;DHT22;4130;48.740;9.132;2023-10-31T11:58:38;12.60;99.90
8178;DHT22;4130;48.740;9.132;2023-10-31T12:01:06;12.50;99.90
8178;DHT22;4130;48.740;9.132;2023-10-31T12:03:37;12.40;99.90
8178;DHT22;4130;48.740;9.132;2023-10-31T12:06:05;12.30;99.90
8178;DHT22;4130;48.740;9.132;2023-10-31T12:08:34;12.20;99.90
8178;DHT22;4130;48.740;9.132;2023-10-31T12:11:06;12.10;99.90
8178;DHT22;4130;48.740;9.132;2023-10-31T12:13:35;12.10;99.90
8178;DHT22;4130;48.740;9.132;2023-10-31T12:16:02;12.20;99.90
8178;DHT22;4130;48.740;9.132;2023-10-31T12:18:29;12.20;99.90
8178;DHT22;4130;48.740;9.132;2023-10-31T12:20:56;12.20;99.90
8178;DHT22;4130;48.740;9.132;2023-10-31T12:23:23;12.30;99.90
8178;DHT22;4130;48.740;9.132;2023-10-31T12:25:51;12.20;99.90
8178;DHT22;4130;48.740;9.132;2023-10-31T12:28:18;12.30;99.90
8178;DHT22;4130;48.740;9.132;2023-10-31T12:30:46;12.30;99.90
8178;DHT22;4130;48.740;9.132;2023-10-31T12:33:13;12.40;99.90
8178;DHT22;4130;48.740;9.132;2023-10-31T12:35:40;12.40;99.90
8178;DHT22;4130;48.740;9.132;2023-10-31T12:38:07;12.50;99.90
8178;DHT22;4130;48.740;9.132;2023-10-31T12:40:36;12.50;99.90
8178;DHT22;4130;48.740;9.132;2023-10-31T12:43:05;12.50;99.90
8178;DHT22;4130;48.740;9.132;2023-10-31T12:45:32;12.30;99.90
8178;DHT22;4130;48.740;9.132;2023-10-31T12:48:02;12.10;99.90
8178;DHT22;4130;48.740;9.132;2023-10-31T12:50:29;11.90;99.90
8178;DHT22;4130;48.740;9.132;2023-10-31T12:52:56;11.70;99.90
8178;DHT22;4130;48.740;9.132;2023-10-31T12:55:25;11.60;99.90
8178;DHT22;4130;48.740;9.132;2023-10-31T12:57:52;11.60;99.90
8178;DHT22;4130;48.740;9.132;2023-10-31T13:00:22;11.60;99.90
8178;DHT22;4130;48.740;9.132;2023-10-31T13:02:58;11.40;99.90
8178;DHT22;4130;48.740;9.132;2023-10-31T13:05:26;11.40;99.90
8178;DHT22;4130;48.740;9.132;2023-10-31T13:07:54;11.30;99.90
8178;DHT22;4130;48.740;9.132;2023-10-31T13:10:23;11.30;99.90
8178;DHT22;4130;48.740;9.132;2023-10-31T13:12:50;11.40;99.90
8178;DHT22;4130;48.740;9.132;2023-10-31T13:15:19;11.40;99.90
8178;DHT22;4130;48.740;9.132;2023-10-31T13:17:47;11.50;99.90
8178;DHT22;4130;48.740;9.132;2023-10-31T13:20:16;11.70;99.90
8178;DHT22;4130;48.740;9.132;2023-10-31T13:22:44;11.70;99.90
8178;DHT22;4130;48.740;9.132;2023-10-31T13:25:12;11.80;99.90
8178;DHT22;4130;48.740;9.132;2023-10-31T13:27:40;11.80;99.90
8178;DHT22;4130;48.740;9.132;2023-10-31T13:30:09;12.60;99.90
8178;DHT22;4130;48.740;9.132;2023-10-31T13:32:36;11.90;99.90
8178;DHT22;4130;48.740;9.132;2023-10-31T13:35:05;12.20;99.90
8178;DHT22;4130;48.740;9.132;2023-10-31T13:37:31;12.00;99.90
8178;DHT22;4130;48.740;9.132;2023-10-31T13:40:00;12.10;99.90
8178;DHT22;4130;48.740;9.132;2023-10-31T13:42:27;12.20;99.90
8178;DHT22;4130;48.740;9.132;2023-10-31T13:44:53;12.30;99.90
8178;DHT22;4130;48.740;9.132;2023-10-31T13:47:20;12.30;99.90
8178;DHT22;4130;48.740;9.132;2023-10-31T13:49:47;12.90;99.90
8178;DHT22;4130;48.740;9.132;2023-10-31T13:52:15;12.40;99.90
8178;DHT22;4130;48.740;9.132;2023-10-31T13:54:43;12.40;99.90
8178;DHT22;4130;48.740;9.132;2023-10-31T13:57:10;12.50;99.90
8178;DHT22;4130;48.740;9.132;2023-10-31T13:59:36;12.50;99.90
8178;DHT22;4130;48.740;9.132;2023-10-31T14:02:03;12.90;99.90
8178;DHT22;4130;48.740;9.132;2023-10-31T14:04:30;12.60;99.90
8178;DHT22;4130;48.740;9.132;2023-10-31T14:06:57;12.50;99.90
8178;DHT22;4130;48.740;9.132;2023-10-31T14:09:26;12.50;99.90
8178;DHT22;4130;48.740;9.132;2023-10-31T14:11:52;12.40;99.90
8178;DHT22;4130;48.740;9.132;2023-10-31T14:14:19;12.40;99.90
8178;DHT22;4130;48.740;9.132;2023-10-31T14:16:46;12.40;99.90
8178;DHT22;4130;48.740;9.132;2023-10-31T14:19:14;12.30;99.90
8178;DHT22;4130;48.740;9.132;2023-10-31T14:21:43;12.40;99.90
8178;DHT22;4130;48.740;9.132;2023-10-31T14:24:12;12.30;99.90
8178;DHT22;4130;48.740;9.132;2023-10-31T14:26:40;12.40;99.90
8178;DHT22;4130;48.740;9.132;2023-10-31T14:29:08;12.40;99.90
8178;DHT22;4130;48.740;9.132;2023-10-31T14:31:39;12.40;99.90
8178;DHT22;4130;48.740;9.132;2023-10-31T14:34:07;12.50;99.90
8178;DHT22;4130;48.740;9.132;2023-10-31T14:36:33;12.50;99.90
8178;DHT22;4130;48.740;9.132;2023-10-31T14:39:00;12.50;99.90
8178;DHT22;4130;48.740;9.132;2023-10-31T14:41:27;12.50;99.90
8178;DHT22;4130;48.740;9.132;2023-10-31T14:44:00;12.40;99.90
8178;DHT22;4130;48.740;9.132;2023-10-31T14:46:28;12.40;99.90
8178;DHT22;4130;48.740;9.132;2023-10-31T14:48:55;12.40;99.90
8178;DHT22;4130;48.740;9.132;2023-10-31T14:51:22;12.30;99.90
8178;DHT22;4130;48.740;9.132;2023-10-31T14:53:48;12.30;99.90
8178;DHT22;4130;48.740;9.132;2023-10-31T14:56:15;12.30;99.90
8178;DHT22;4130;48.740;9.132;2023-10-31T14:58:42;12.30;99.90
8178;DHT22;4130;48.740;9.132;2023-10-31T15:01:10;12.40;99.90
8178;DHT22;4130;48.740;9.132;2023-10-31T15:03:38;12.20;99.90
8178;DHT22;4130;48.740;9.132;2023-10-31T15:06:05;12.20;99.90
8178;DHT22;4130;48.740;9.132;2023-10-31T15:08:33;12.20;99.90
8178;DHT22;4130;48.740;9.132;2023-10-31T15:11:00;12.40;99.90
8178;DHT22;4130;48.740;9.132;2023-10-31T15:13:27;12.20;99.90
8178;DHT22;4130;48.740;9.132;2023-10-31T15:15:53;12.30;99.90
8178;DHT22;4130;48.740;9.132;2023-10-31T15:18:21;12.10;99.90
8178;DHT22;4130;48.740;9.132;2023-10-31T15:20:48;12.00;99.90
8178;DHT22;4130;48.740;9.132;2023-10-31T15:23:15;11.90;99.90
8178;DHT22;4130;48.740;9.132;2023-10-31T15:25:42;11.80;99.90
8178;DHT22;4130;48.740;9.132;2023-10-31T15:28:08;11.70;99.90
8178;DHT22;4130;48.740;9.132;2023-10-31T15:30:35;11.70;99.90
8178;DHT22;4130;48.740;9.132;2023-10-31T15:33:02;11.70;99.90
8178;DHT22;4130;48.740;9.132;2023-10-31T15:35:31;11.70;99.90
8178;DHT22;4130;48.740;9.132;2023-10-31T15:37:57;11.70;99.90
8178;DHT22;4130;48.740;9.132;2023-10-31T15:40:24;11.70;99.90
8178;DHT22;4130;48.740;9.132;2023-10-31T15:42:51;11.70;99.90
8178;DHT22;4130;48.740;9.132;2023-10-31T15:45:18;11.60;99.90
8178;DHT22;4130;48.740;9.132;2023-10-31T15:47:44;11.40;99.90
8178;DHT22;4130;48.740;9.132;2023-10-31T15:50:11;11.30;99.90
8178;DHT22;4130;48.740;9.132;2023-10-31T15:52:39;11.20;99.90
8178;DHT22;4130;48.740;9.132;2023-10-31T15:55:06;11.20;99.90
8178;DHT22;4130;48.740;9.132;2023-10-31T15:57:35;11.00;99.90
8178;DHT22;4130;48.740;9.132;2023-10-31T16:00:02;11.00;99.90
8178;DHT22;4130;48.740;9.132;2023-10-31T16:02:29;11.10;99.90
8178;DHT22;4130;48.740;9.132;2023-10-31T16:04:56;11.00;99.90
8178;DHT22;4130;48.740;9.132;2023-10-31T16:07:23;10.90;99.90
8178;DHT22;4130;48.740;9.132;2023-10-31T16:09:51;10.90;99.90
8178;DHT22;4130;48.740;9.132;2023-10-31T16:12:19;10.90;99.90
8178;DHT22;4130;48.740;9.132;2023-10-31T16:14:46;10.80;99.90
8178;DHT22;4130;48.740;9.132;2023-10-31T16:17:22;10.90;99.90